sensor_id;sensor_type;location;lat;lon;timestamp;P1;durP1;ratioP1;P2;durP2;ratioP2
75818;SDS011;64453;51.944;9.796;2023-04-24T00:01:04;0.93;;;0.80;;
75818;SDS011;64453;51.944;9.796;2023-04-24T00:03:32;0.90;;;0.90;;
75818;SDS011;64453;51.944;9.796;2023-04-24T00:05:59;1.03;;;1.00;;
75818;SDS011;64453;51.944;9.796;2023-04-24T00:08:27;1.00;;;1.00;;
75818;SDS011;64453;51.944;9.796;2023-04-24T00:10:56;1.10;;;1.00;;
75818;SDS011;64453;51.944;9.796;2023-04-24T00:13:23;1.07;;;1.07;;
75818;SDS011;64453;51.944;9.796;2023-04-24T00:15:50;1.13;;;0.87;;
75818;SDS011;64453;51.944;9.796;2023-04-24T00:18:17;1.00;;;0.90;;
75818;SDS011;64453;51.944;9.796;2023-04-24T00:20:44;1.30;;;0.73;;
75818;SDS011;64453;51.944;9.796;2023-04-24T00:23:11;1.53;;;1.10;;
75818;SDS011;64453;51.944;9.796;2023-04-24T00:25:38;1.87;;;0.80;;
75818;SDS011;64453;51.944;9.796;2023-04-24T00:28:07;1.27;;;0.90;;
75818;SDS011;64453;51.944;9.796;2023-04-24T00:30:34;1.00;;;0.93;;
75818;SDS011;64453;51.944;9.796;2023-04-24T00:33:01;1.10;;;0.93;;
75818;SDS011;64453;51.944;9.796;2023-04-24T00:35:27;0.80;;;0.80;;
75818;SDS011;64453;51.944;9.796;2023-04-24T00:37:54;0.87;;;0.87;;
75818;SDS011;64453;51.944;9.796;2023-04-24T00:40:21;1.20;;;1.07;;
75818;SDS011;64453;51.944;9.796;2023-04-24T00:42:48;1.07;;;1.07;;
75818;SDS011;64453;51.944;9.796;2023-04-24T00:45:17;1.13;;;1.07;;
75818;SDS011;64453;51.944;9.796;2023-04-24T00:47:44;0.90;;;0.83;;
75818;SDS011;64453;51.944;9.796;2023-04-24T00:50:11;3.00;;;1.00;;
75818;SDS011;64453;51.944;9.796;2023-04-24T00:52:41;1.07;;;1.07;;
75818;SDS011;64453;51.944;9.796;2023-04-24T00:55:08;0.80;;;0.80;;
75818;SDS011;64453;51.944;9.796;2023-04-24T00:57:36;1.07;;;0.90;;
75818;SDS011;64453;51.944;9.796;2023-04-24T01:00:03;1.40;;;0.80;;
75818;SDS011;64453;51.944;9.796;2023-04-24T01:02:37;0.70;;;0.70;;
75818;SDS011;64453;51.944;9.796;2023-04-24T01:05:09;1.27;;;1.10;;
75818;SDS011;64453;51.944;9.796;2023-04-24T01:07:36;1.10;;;0.80;;
75818;SDS011;64453;51.944;9.796;2023-04-24T01:10:04;1.60;;;1.00;;
75818;SDS011;64453;51.944;9.796;2023-04-24T01:12:32;1.13;;;0.80;;
75818;SDS011;64453;51.944;9.796;2023-04-24T01:14:59;0.83;;;0.83;;
75818;SDS011;64453;51.944;9.796;2023-04-24T01:17:27;0.70;;;0.70;;
75818;SDS011;64453;51.944;9.796;2023-04-24T01:19:55;0.97;;;0.97;;
75818;SDS011;64453;51.944;9.796;2023-04-24T01:22:24;0.70;;;0.70;;
75818;SDS011;64453;51.944;9.796;2023-04-24T01:24:51;0.83;;;0.77;;
75818;SDS011;64453;51.944;9.796;2023-04-24T01:27:18;0.83;;;0.80;;
75818;SDS011;64453;51.944;9.796;2023-04-24T01:29:45;0.80;;;0.80;;
75818;SDS011;64453;51.944;9.796;2023-04-24T01:32:14;0.70;;;0.70;;
75818;SDS011;64453;51.944;9.796;2023-04-24T01:34:41;0.90;;;0.90;;
75818;SDS011;64453;51.944;9.796;2023-04-24T01:37:09;0.90;;;0.90;;
75818;SDS011;64453;51.944;9.796;2023-04-24T01:39:37;1.73;;;0.90;;
75818;SDS011;64453;51.944;9.796;2023-04-24T01:42:05;0.53;;;0.53;;
75818;SDS011;64453;51.944;9.796;2023-04-24T01:44:33;1.00;;;0.80;;
75818;SDS011;64453;51.944;9.796;2023-04-24T01:47:00;1.00;;;0.90;;
75818;SDS011;64453;51.944;9.796;2023-04-24T01:49:27;0.80;;;0.80;;
75818;SDS011;64453;51.944;9.796;2023-04-24T01:51:54;0.87;;;0.77;;
75818;SDS011;64453;51.944;9.796;2023-04-24T01:54:21;1.00;;;0.80;;
75818;SDS011;64453;51.944;9.796;2023-04-24T01:56:49;1.13;;;0.73;;
75818;SDS011;64453;51.944;9.796;2023-04-24T01:59:16;1.63;;;0.60;;
75818;SDS011;64453;51.944;9.796;2023-04-24T02:01:43;1.07;;;0.70;;
75818;SDS011;64453;51.944;9.796;2023-04-24T02:04:10;0.60;;;0.60;;
75818;SDS011;64453;51.944;9.796;2023-04-24T02:06:37;0.80;;;0.80;;
75818;SDS011;64453;51.944;9.796;2023-04-24T02:09:04;0.60;;;0.60;;
75818;SDS011;64453;51.944;9.796;2023-04-24T02:11:31;0.93;;;0.70;;
75818;SDS011;64453;51.944;9.796;2023-04-24T02:13:59;0.60;;;0.60;;
75818;SDS011;64453;51.944;9.796;2023-04-24T02:16:27;0.50;;;0.50;;
75818;SDS011;64453;51.944;9.796;2023-04-24T02:18:57;0.50;;;0.50;;
75818;SDS011;64453;51.944;9.796;2023-04-24T02:21:24;0.63;;;0.63;;
75818;SDS011;64453;51.944;9.796;2023-04-24T02:23:52;1.90;;;0.60;;
75818;SDS011;64453;51.944;9.796;2023-04-24T02:26:19;0.57;;;0.40;;
75818;SDS011;64453;51.944;9.796;2023-04-24T02:28:46;0.50;;;0.50;;
75818;SDS011;64453;51.944;9.796;2023-04-24T02:31:14;0.50;;;0.50;;
75818;SDS011;64453;51.944;9.796;2023-04-24T02:33:41;0.40;;;0.40;;
75818;SDS011;64453;51.944;9.796;2023-04-24T02:36:08;0.70;;;0.47;;
75818;SDS011;64453;51.944;9.796;2023-04-24T02:38:35;0.60;;;0.50;;
75818;SDS011;64453;51.944;9.796;2023-04-24T02:41:02;0.40;;;0.40;;
75818;SDS011;64453;51.944;9.796;2023-04-24T02:43:31;0.40;;;0.40;;
75818;SDS011;64453;51.944;9.796;2023-04-24T02:45:58;0.53;;;0.50;;
75818;SDS011;64453;51.944;9.796;2023-04-24T02:48:26;0.50;;;0.50;;
75818;SDS011;64453;51.944;9.796;2023-04-24T02:50:53;0.73;;;0.50;;
75818;SDS011;64453;51.944;9.796;2023-04-24T02:53:20;1.33;;;0.57;;
75818;SDS011;64453;51.944;9.796;2023-04-24T02:55:48;0.40;;;0.40;;
75818;SDS011;64453;51.944;9.796;2023-04-24T02:58:15;0.50;;;0.50;;
75818;SDS011;64453;51.944;9.796;2023-04-24T03:00:42;0.43;;;0.43;;
75818;SDS011;64453;51.944;9.796;2023-04-24T03:03:09;0.60;;;0.53;;
75818;SDS011;64453;51.944;9.796;2023-04-24T03:05:37;0.40;;;0.40;;
75818;SDS011;64453;51.944;9.796;2023-04-24T03:08:05;0.60;;;0.40;;
75818;SDS011;64453;51.944;9.796;2023-04-24T03:10:32;0.40;;;0.40;;
75818;SDS011;64453;51.944;9.796;2023-04-24T03:12:59;0.60;;;0.60;;
75818;SDS011;64453;51.944;9.796;2023-04-24T03:15:26;0.50;;;0.50;;
75818;SDS011;64453;51.944;9.796;2023-04-24T03:17:53;0.60;;;0.50;;
75818;SDS011;64453;51.944;9.796;2023-04-24T03:20:20;0.40;;;0.40;;
75818;SDS011;64453;51.944;9.796;2023-04-24T03:22:48;0.40;;;0.40;;
75818;SDS011;64453;51.944;9.796;2023-04-24T03:25:15;0.97;;;0.40;;
75818;SDS011;64453;51.944;9.796;2023-04-24T03:27:42;0.93;;;0.50;;
75818;SDS011;64453;51.944;9.796;2023-04-24T03:30:10;0.70;;;0.43;;
75818;SDS011;64453;51.944;9.796;2023-04-24T03:32:37;0.43;;;0.43;;
75818;SDS011;64453;51.944;9.796;2023-04-24T03:35:04;0.33;;;0.33;;
75818;SDS011;64453;51.944;9.796;2023-04-24T03:37:33;0.60;;;0.60;;
75818;SDS011;64453;51.944;9.796;2023-04-24T03:40:01;0.70;;;0.60;;
75818;SDS011;64453;51.944;9.796;2023-04-24T03:42:30;1.10;;;0.70;;
75818;SDS011;64453;51.944;9.796;2023-04-24T03:44:57;3.30;;;2.00;;
75818;SDS011;64453;51.944;9.796;2023-04-24T03:47:24;2.57;;;2.37;;
75818;SDS011;64453;51.944;9.796;2023-04-24T03:49:51;1.67;;;1.30;;
75818;SDS011;64453;51.944;9.796;2023-04-24T03:52:19;0.97;;;0.63;;
75818;SDS011;64453;51.944;9.796;2023-04-24T03:54:46;0.80;;;0.80;;
75818;SDS011;64453;51.944;9.796;2023-04-24T03:57:14;0.70;;;0.70;;
75818;SDS011;64453;51.944;9.796;2023-04-24T03:59:41;0.70;;;0.60;;
75818;SDS011;64453;51.944;9.796;2023-04-24T04:02:08;1.03;;;0.73;;
75818;SDS011;64453;51.944;9.796;2023-04-24T04:04:35;3.00;;;0.70;;
75818;SDS011;64453;51.944;9.796;2023-04-24T04:07:02;1.07;;;0.80;;
75818;SDS011;64453;51.944;9.796;2023-04-24T04:09:30;0.60;;;0.60;;
75818;SDS011;64453;51.944;9.796;2023-04-24T04:11:57;1.03;;;0.50;;
75818;SDS011;64453;51.944;9.796;2023-04-24T04:14:26;1.53;;;0.70;;
75818;SDS011;64453;51.944;9.796;2023-04-24T04:16:53;0.57;;;0.50;;
75818;SDS011;64453;51.944;9.796;2023-04-24T04:19:21;2.10;;;0.60;;
75818;SDS011;64453;51.944;9.796;2023-04-24T04:21:48;0.60;;;0.60;;
75818;SDS011;64453;51.944;9.796;2023-04-24T04:24:18;0.93;;;0.40;;
75818;SDS011;64453;51.944;9.796;2023-04-24T04:26:47;0.40;;;0.40;;
75818;SDS011;64453;51.944;9.796;2023-04-24T04:29:16;0.83;;;0.70;;
75818;SDS011;64453;51.944;9.796;2023-04-24T04:31:44;2.00;;;0.50;;
75818;SDS011;64453;51.944;9.796;2023-04-24T04:34:11;0.50;;;0.50;;
75818;SDS011;64453;51.944;9.796;2023-04-24T04:36:39;1.00;;;0.60;;
75818;SDS011;64453;51.944;9.796;2023-04-24T04:39:06;0.60;;;0.60;;
75818;SDS011;64453;51.944;9.796;2023-04-24T04:41:33;0.57;;;0.57;;
75818;SDS011;64453;51.944;9.796;2023-04-24T04:44:01;0.63;;;0.60;;
75818;SDS011;64453;51.944;9.796;2023-04-24T04:46:30;0.60;;;0.50;;
75818;SDS011;64453;51.944;9.796;2023-04-24T04:49:00;0.60;;;0.60;;
75818;SDS011;64453;51.944;9.796;2023-04-24T04:51:27;0.40;;;0.40;;
75818;SDS011;64453;51.944;9.796;2023-04-24T04:53:55;0.40;;;0.40;;
75818;SDS011;64453;51.944;9.796;2023-04-24T04:56:22;0.73;;;0.43;;
75818;SDS011;64453;51.944;9.796;2023-04-24T04:58:49;0.60;;;0.53;;
75818;SDS011;64453;51.944;9.796;2023-04-24T05:01:16;0.60;;;0.60;;
75818;SDS011;64453;51.944;9.796;2023-04-24T05:03:43;0.87;;;0.80;;
75818;SDS011;64453;51.944;9.796;2023-04-24T05:06:11;1.17;;;0.80;;
75818;SDS011;64453;51.944;9.796;2023-04-24T05:08:38;0.60;;;0.60;;
75818;SDS011;64453;51.944;9.796;2023-04-24T05:11:05;2.03;;;0.80;;
75818;SDS011;64453;51.944;9.796;2023-04-24T05:13:32;0.40;;;0.40;;
75818;SDS011;64453;51.944;9.796;2023-04-24T05:15:59;1.70;;;0.83;;
75818;SDS011;64453;51.944;9.796;2023-04-24T05:18:26;0.90;;;0.60;;
75818;SDS011;64453;51.944;9.796;2023-04-24T05:20:53;0.50;;;0.50;;
75818;SDS011;64453;51.944;9.796;2023-04-24T05:23:22;0.80;;;0.80;;
75818;SDS011;64453;51.944;9.796;2023-04-24T05:25:49;1.97;;;0.80;;
75818;SDS011;64453;51.944;9.796;2023-04-24T05:28:16;1.23;;;0.90;;
75818;SDS011;64453;51.944;9.796;2023-04-24T05:30:43;3.03;;;2.87;;
75818;SDS011;64453;51.944;9.796;2023-04-24T05:33:10;1.40;;;1.40;;
75818;SDS011;64453;51.944;9.796;2023-04-24T05:35:36;1.60;;;1.50;;
75818;SDS011;64453;51.944;9.796;2023-04-24T05:38:03;1.30;;;1.30;;
75818;SDS011;64453;51.944;9.796;2023-04-24T05:40:32;5.30;;;4.80;;
75818;SDS011;64453;51.944;9.796;2023-04-24T05:42:58;2.17;;;2.00;;
75818;SDS011;64453;51.944;9.796;2023-04-24T05:45:25;0.80;;;0.70;;
75818;SDS011;64453;51.944;9.796;2023-04-24T05:47:52;0.90;;;0.50;;
75818;SDS011;64453;51.944;9.796;2023-04-24T05:50:20;0.50;;;0.50;;
75818;SDS011;64453;51.944;9.796;2023-04-24T05:52:47;0.70;;;0.53;;
75818;SDS011;64453;51.944;9.796;2023-04-24T05:55:14;0.77;;;0.77;;
75818;SDS011;64453;51.944;9.796;2023-04-24T05:57:44;0.73;;;0.50;;
75818;SDS011;64453;51.944;9.796;2023-04-24T06:00:12;0.97;;;0.80;;
75818;SDS011;64453;51.944;9.796;2023-04-24T06:02:40;0.80;;;0.80;;
75818;SDS011;64453;51.944;9.796;2023-04-24T06:05:07;2.50;;;1.60;;
75818;SDS011;64453;51.944;9.796;2023-04-24T06:07:34;0.90;;;0.90;;
75818;SDS011;64453;51.944;9.796;2023-04-24T06:10:01;1.43;;;0.90;;
75818;SDS011;64453;51.944;9.796;2023-04-24T06:12:28;2.53;;;0.63;;
75818;SDS011;64453;51.944;9.796;2023-04-24T06:14:57;0.90;;;0.90;;
75818;SDS011;64453;51.944;9.796;2023-04-24T06:17:25;1.03;;;0.90;;
75818;SDS011;64453;51.944;9.796;2023-04-24T06:19:52;3.90;;;0.70;;
75818;SDS011;64453;51.944;9.796;2023-04-24T06:22:18;1.20;;;0.80;;
75818;SDS011;64453;51.944;9.796;2023-04-24T06:24:45;0.83;;;0.83;;
75818;SDS011;64453;51.944;9.796;2023-04-24T06:27:13;0.80;;;0.80;;
75818;SDS011;64453;51.944;9.796;2023-04-24T06:29:40;0.97;;;0.87;;
75818;SDS011;64453;51.944;9.796;2023-04-24T06:32:08;1.00;;;0.93;;
75818;SDS011;64453;51.944;9.796;2023-04-24T06:34:35;0.77;;;0.77;;
75818;SDS011;64453;51.944;9.796;2023-04-24T06:37:02;2.07;;;1.10;;
75818;SDS011;64453;51.944;9.796;2023-04-24T06:39:28;1.03;;;1.03;;
75818;SDS011;64453;51.944;9.796;2023-04-24T06:41:56;1.67;;;1.00;;
75818;SDS011;64453;51.944;9.796;2023-04-24T06:44:23;1.00;;;1.00;;
75818;SDS011;64453;51.944;9.796;2023-04-24T06:46:50;1.10;;;1.10;;
75818;SDS011;64453;51.944;9.796;2023-04-24T06:49:18;1.30;;;1.20;;
75818;SDS011;64453;51.944;9.796;2023-04-24T06:51:45;1.10;;;1.10;;
75818;SDS011;64453;51.944;9.796;2023-04-24T06:54:12;1.00;;;1.00;;
75818;SDS011;64453;51.944;9.796;2023-04-24T06:56:38;1.13;;;1.13;;
75818;SDS011;64453;51.944;9.796;2023-04-24T06:59:05;1.30;;;1.20;;
75818;SDS011;64453;51.944;9.796;2023-04-24T07:01:32;1.27;;;1.17;;
75818;SDS011;64453;51.944;9.796;2023-04-24T07:03:59;1.40;;;1.30;;
75818;SDS011;64453;51.944;9.796;2023-04-24T07:06:27;1.40;;;1.33;;
75818;SDS011;64453;51.944;9.796;2023-04-24T07:08:55;1.43;;;1.43;;
75818;SDS011;64453;51.944;9.796;2023-04-24T07:11:22;1.47;;;1.40;;
75818;SDS011;64453;51.944;9.796;2023-04-24T07:13:49;1.70;;;1.60;;
75818;SDS011;64453;51.944;9.796;2023-04-24T07:16:16;1.47;;;1.40;;
75818;SDS011;64453;51.944;9.796;2023-04-24T07:18:43;1.50;;;1.50;;
75818;SDS011;64453;51.944;9.796;2023-04-24T07:21:10;1.87;;;1.77;;
75818;SDS011;64453;51.944;9.796;2023-04-24T07:23:38;1.93;;;1.83;;
75818;SDS011;64453;51.944;9.796;2023-04-24T07:26:06;1.73;;;1.73;;
75818;SDS011;64453;51.944;9.796;2023-04-24T07:28:33;2.30;;;1.90;;
75818;SDS011;64453;51.944;9.796;2023-04-24T07:31:00;1.97;;;1.90;;
75818;SDS011;64453;51.944;9.796;2023-04-24T07:33:27;2.30;;;2.20;;
75818;SDS011;64453;51.944;9.796;2023-04-24T07:35:54;2.40;;;2.30;;
75818;SDS011;64453;51.944;9.796;2023-04-24T07:38:21;2.50;;;2.30;;
75818;SDS011;64453;51.944;9.796;2023-04-24T07:40:49;1.83;;;1.73;;
75818;SDS011;64453;51.944;9.796;2023-04-24T07:43:16;2.10;;;2.00;;
75818;SDS011;64453;51.944;9.796;2023-04-24T07:45:43;2.07;;;1.93;;
75818;SDS011;64453;51.944;9.796;2023-04-24T07:48:10;2.23;;;2.13;;
75818;SDS011;64453;51.944;9.796;2023-04-24T07:50:39;1.93;;;1.83;;
75818;SDS011;64453;51.944;9.796;2023-04-24T07:53:07;2.63;;;2.43;;
75818;SDS011;64453;51.944;9.796;2023-04-24T07:55:34;2.73;;;2.20;;
75818;SDS011;64453;51.944;9.796;2023-04-24T07:58:02;2.50;;;2.40;;
75818;SDS011;64453;51.944;9.796;2023-04-24T08:00:30;2.40;;;2.20;;
75818;SDS011;64453;51.944;9.796;2023-04-24T08:02:57;2.40;;;2.30;;
75818;SDS011;64453;51.944;9.796;2023-04-24T08:05:23;2.97;;;2.80;;
75818;SDS011;64453;51.944;9.796;2023-04-24T08:07:52;2.50;;;2.40;;
75818;SDS011;64453;51.944;9.796;2023-04-24T08:10:19;2.30;;;2.20;;
75818;SDS011;64453;51.944;9.796;2023-04-24T08:12:47;3.43;;;2.40;;
75818;SDS011;64453;51.944;9.796;2023-04-24T08:15:15;2.90;;;2.70;;
75818;SDS011;64453;51.944;9.796;2023-04-24T08:17:43;3.10;;;2.90;;
75818;SDS011;64453;51.944;9.796;2023-04-24T08:20:10;2.50;;;2.40;;
75818;SDS011;64453;51.944;9.796;2023-04-24T08:22:39;2.90;;;2.70;;
75818;SDS011;64453;51.944;9.796;2023-04-24T08:25:07;2.83;;;2.73;;
75818;SDS011;64453;51.944;9.796;2023-04-24T08:27:35;3.30;;;3.20;;
75818;SDS011;64453;51.944;9.796;2023-04-24T08:30:03;3.23;;;3.03;;
75818;SDS011;64453;51.944;9.796;2023-04-24T08:32:33;2.93;;;2.83;;
75818;SDS011;64453;51.944;9.796;2023-04-24T08:35:00;3.20;;;3.00;;
75818;SDS011;64453;51.944;9.796;2023-04-24T08:37:27;2.90;;;2.80;;
75818;SDS011;64453;51.944;9.796;2023-04-24T08:39:53;2.60;;;2.50;;
75818;SDS011;64453;51.944;9.796;2023-04-24T08:42:21;2.50;;;2.40;;
75818;SDS011;64453;51.944;9.796;2023-04-24T08:44:48;2.27;;;2.17;;
75818;SDS011;64453;51.944;9.796;2023-04-24T08:47:15;2.70;;;2.50;;
75818;SDS011;64453;51.944;9.796;2023-04-24T08:49:44;2.20;;;2.10;;
75818;SDS011;64453;51.944;9.796;2023-04-24T08:52:11;2.47;;;2.37;;
75818;SDS011;64453;51.944;9.796;2023-04-24T08:54:39;2.87;;;2.63;;
75818;SDS011;64453;51.944;9.796;2023-04-24T08:57:06;2.60;;;2.50;;
75818;SDS011;64453;51.944;9.796;2023-04-24T08:59:36;3.30;;;3.00;;
75818;SDS011;64453;51.944;9.796;2023-04-24T09:02:04;2.87;;;2.67;;
75818;SDS011;64453;51.944;9.796;2023-04-24T09:04:32;2.40;;;2.30;;
75818;SDS011;64453;51.944;9.796;2023-04-24T09:07:02;2.53;;;2.43;;
75818;SDS011;64453;51.944;9.796;2023-04-24T09:09:30;2.20;;;2.03;;
75818;SDS011;64453;51.944;9.796;2023-04-24T09:12:01;2.10;;;2.00;;
75818;SDS011;64453;51.944;9.796;2023-04-24T09:14:28;2.23;;;2.13;;
75818;SDS011;64453;51.944;9.796;2023-04-24T09:16:57;2.17;;;2.07;;
75818;SDS011;64453;51.944;9.796;2023-04-24T09:19:24;2.10;;;2.00;;
75818;SDS011;64453;51.944;9.796;2023-04-24T09:21:51;2.03;;;1.93;;
75818;SDS011;64453;51.944;9.796;2023-04-24T09:24:21;1.93;;;1.83;;
75818;SDS011;64453;51.944;9.796;2023-04-24T09:26:48;1.80;;;1.80;;
75818;SDS011;64453;51.944;9.796;2023-04-24T09:29:23;1.80;;;1.63;;
75818;SDS011;64453;51.944;9.796;2023-04-24T09:31:50;2.20;;;2.13;;
75818;SDS011;64453;51.944;9.796;2023-04-24T09:34:20;2.27;;;2.17;;
75818;SDS011;64453;51.944;9.796;2023-04-24T09:36:49;1.90;;;1.80;;
75818;SDS011;64453;51.944;9.796;2023-04-24T09:39:17;1.70;;;1.70;;
75818;SDS011;64453;51.944;9.796;2023-04-24T09:41:47;1.80;;;1.70;;
75818;SDS011;64453;51.944;9.796;2023-04-24T09:44:16;1.70;;;1.60;;
75818;SDS011;64453;51.944;9.796;2023-04-24T09:46:49;1.47;;;1.40;;
75818;SDS011;64453;51.944;9.796;2023-04-24T09:49:21;1.20;;;1.20;;
75818;SDS011;64453;51.944;9.796;2023-04-24T09:51:50;2.13;;;2.03;;
75818;SDS011;64453;51.944;9.796;2023-04-24T09:54:17;2.00;;;1.90;;
75818;SDS011;64453;51.944;9.796;2023-04-24T09:56:47;1.60;;;1.50;;
75818;SDS011;64453;51.944;9.796;2023-04-24T09:59:16;1.63;;;1.53;;
75818;SDS011;64453;51.944;9.796;2023-04-24T10:01:46;1.83;;;1.80;;
75818;SDS011;64453;51.944;9.796;2023-04-24T10:04:17;1.60;;;1.50;;
75818;SDS011;64453;51.944;9.796;2023-04-24T10:06:45;1.80;;;1.70;;
75818;SDS011;64453;51.944;9.796;2023-04-24T10:09:14;1.70;;;1.60;;
75818;SDS011;64453;51.944;9.796;2023-04-24T10:11:41;1.23;;;1.20;;
75818;SDS011;64453;51.944;9.796;2023-04-24T10:14:12;1.40;;;1.40;;
75818;SDS011;64453;51.944;9.796;2023-04-24T10:16:40;1.73;;;1.63;;
75818;SDS011;64453;51.944;9.796;2023-04-24T10:19:09;1.97;;;1.87;;
75818;SDS011;64453;51.944;9.796;2023-04-24T10:21:38;1.43;;;1.43;;
75818;SDS011;64453;51.944;9.796;2023-04-24T10:24:11;1.40;;;1.40;;
75818;SDS011;64453;51.944;9.796;2023-04-24T10:26:40;1.47;;;1.47;;
75818;SDS011;64453;51.944;9.796;2023-04-24T10:29:07;2.10;;;2.00;;
75818;SDS011;64453;51.944;9.796;2023-04-24T10:31:39;2.23;;;2.03;;
75818;SDS011;64453;51.944;9.796;2023-04-24T10:34:06;1.37;;;1.37;;
75818;SDS011;64453;51.944;9.796;2023-04-24T10:36:36;1.60;;;1.50;;
75818;SDS011;64453;51.944;9.796;2023-04-24T10:39:08;1.10;;;1.00;;
75818;SDS011;64453;51.944;9.796;2023-04-24T10:41:39;1.00;;;1.00;;
75818;SDS011;64453;51.944;9.796;2023-04-24T10:44:06;1.30;;;1.30;;
75818;SDS011;64453;51.944;9.796;2023-04-24T10:46:34;1.20;;;1.20;;
75818;SDS011;64453;51.944;9.796;2023-04-24T10:49:04;1.00;;;1.00;;
75818;SDS011;64453;51.944;9.796;2023-04-24T10:51:44;1.30;;;1.30;;
75818;SDS011;64453;51.944;9.796;2023-04-24T10:54:22;1.43;;;0.93;;
75818;SDS011;64453;51.944;9.796;2023-04-24T10:56:52;1.47;;;1.43;;
75818;SDS011;64453;51.944;9.796;2023-04-24T10:59:24;1.27;;;1.17;;
75818;SDS011;64453;51.944;9.796;2023-04-24T11:01:52;1.10;;;1.00;;
75818;SDS011;64453;51.944;9.796;2023-04-24T11:04:30;1.37;;;1.27;;
75818;SDS011;64453;51.944;9.796;2023-04-24T11:06:58;1.50;;;1.40;;
75818;SDS011;64453;51.944;9.796;2023-04-24T11:09:26;1.10;;;1.00;;
75818;SDS011;64453;51.944;9.796;2023-04-24T11:12:02;1.57;;;1.00;;
75818;SDS011;64453;51.944;9.796;2023-04-24T11:17:31;2.03;;;1.30;;
75818;SDS011;64453;51.944;9.796;2023-04-24T11:20:04;1.33;;;1.20;;
75818;SDS011;64453;51.944;9.796;2023-04-24T11:22:35;1.10;;;0.80;;
75818;SDS011;64453;51.944;9.796;2023-04-24T11:25:05;1.07;;;1.07;;
75818;SDS011;64453;51.944;9.796;2023-04-24T11:27:38;1.70;;;1.60;;
75818;SDS011;64453;51.944;9.796;2023-04-24T11:30:07;0.73;;;0.73;;
75818;SDS011;64453;51.944;9.796;2023-04-24T11:32:35;0.90;;;0.90;;
75818;SDS011;64453;51.944;9.796;2023-04-24T11:35:06;0.73;;;0.73;;
75818;SDS011;64453;51.944;9.796;2023-04-24T11:37:36;0.97;;;0.97;;
75818;SDS011;64453;51.944;9.796;2023-04-24T11:40:06;1.77;;;1.10;;
75818;SDS011;64453;51.944;9.796;2023-04-24T11:42:35;1.07;;;0.97;;
75818;SDS011;64453;51.944;9.796;2023-04-24T11:45:07;1.30;;;1.20;;
75818;SDS011;64453;51.944;9.796;2023-04-24T11:47:35;1.00;;;1.00;;
75818;SDS011;64453;51.944;9.796;2023-04-24T11:50:06;1.43;;;1.00;;
75818;SDS011;64453;51.944;9.796;2023-04-24T11:52:37;1.30;;;1.00;;
75818;SDS011;64453;51.944;9.796;2023-04-24T11:55:06;0.50;;;0.50;;
75818;SDS011;64453;51.944;9.796;2023-04-24T11:57:38;0.50;;;0.50;;
75818;SDS011;64453;51.944;9.796;2023-04-24T12:00:14;0.67;;;0.50;;
75818;SDS011;64453;51.944;9.796;2023-04-24T12:02:43;1.60;;;0.60;;
75818;SDS011;64453;51.944;9.796;2023-04-24T12:05:20;0.30;;;0.30;;
75818;SDS011;64453;51.944;9.796;2023-04-24T12:07:47;0.50;;;0.50;;
75818;SDS011;64453;51.944;9.796;2023-04-24T12:10:19;3.17;;;0.70;;
75818;SDS011;64453;51.944;9.796;2023-04-24T12:12:47;0.67;;;0.50;;
75818;SDS011;64453;51.944;9.796;2023-04-24T12:15:15;0.40;;;0.40;;
75818;SDS011;64453;51.944;9.796;2023-04-24T12:17:44;0.40;;;0.40;;
75818;SDS011;64453;51.944;9.796;2023-04-24T12:20:11;0.50;;;0.50;;
75818;SDS011;64453;51.944;9.796;2023-04-24T12:22:44;0.77;;;0.50;;
75818;SDS011;64453;51.944;9.796;2023-04-24T12:25:13;0.40;;;0.40;;
75818;SDS011;64453;51.944;9.796;2023-04-24T12:27:41;0.40;;;0.40;;
75818;SDS011;64453;51.944;9.796;2023-04-24T12:30:10;0.60;;;0.60;;
75818;SDS011;64453;51.944;9.796;2023-04-24T12:32:42;0.47;;;0.47;;
75818;SDS011;64453;51.944;9.796;2023-04-24T12:35:11;0.40;;;0.30;;
75818;SDS011;64453;51.944;9.796;2023-04-24T12:37:38;0.60;;;0.60;;
75818;SDS011;64453;51.944;9.796;2023-04-24T12:40:10;1.00;;;1.00;;
75818;SDS011;64453;51.944;9.796;2023-04-24T12:42:42;0.97;;;0.97;;
75818;SDS011;64453;51.944;9.796;2023-04-24T12:45:10;1.03;;;1.03;;
75818;SDS011;64453;51.944;9.796;2023-04-24T12:47:38;1.20;;;1.13;;
75818;SDS011;64453;51.944;9.796;2023-04-24T12:50:07;1.00;;;0.90;;
75818;SDS011;64453;51.944;9.796;2023-04-24T12:52:34;0.90;;;0.60;;
75818;SDS011;64453;51.944;9.796;2023-04-24T12:55:02;5.87;;;1.40;;
75818;SDS011;64453;51.944;9.796;2023-04-24T12:57:34;0.60;;;0.60;;
75818;SDS011;64453;51.944;9.796;2023-04-24T13:00:03;1.00;;;0.70;;
75818;SDS011;64453;51.944;9.796;2023-04-24T13:02:33;0.40;;;0.40;;
75818;SDS011;64453;51.944;9.796;2023-04-24T13:05:01;0.60;;;0.50;;
75818;SDS011;64453;51.944;9.796;2023-04-24T13:07:28;0.83;;;0.50;;
75818;SDS011;64453;51.944;9.796;2023-04-24T13:09:56;0.30;;;0.30;;
75818;SDS011;64453;51.944;9.796;2023-04-24T13:12:23;0.30;;;0.30;;
75818;SDS011;64453;51.944;9.796;2023-04-24T13:14:52;0.50;;;0.50;;
75818;SDS011;64453;51.944;9.796;2023-04-24T13:17:19;0.40;;;0.30;;
75818;SDS011;64453;51.944;9.796;2023-04-24T13:19:46;0.30;;;0.30;;
75818;SDS011;64453;51.944;9.796;2023-04-24T13:22:15;1.80;;;0.80;;
75818;SDS011;64453;51.944;9.796;2023-04-24T13:24:43;3.90;;;1.70;;
75818;SDS011;64453;51.944;9.796;2023-04-24T13:27:10;0.60;;;0.60;;
75818;SDS011;64453;51.944;9.796;2023-04-24T13:29:37;0.73;;;0.30;;
75818;SDS011;64453;51.944;9.796;2023-04-24T13:32:06;0.40;;;0.40;;
75818;SDS011;64453;51.944;9.796;2023-04-24T13:34:33;0.57;;;0.37;;
75818;SDS011;64453;51.944;9.796;2023-04-24T13:37:01;0.20;;;0.20;;
75818;SDS011;64453;51.944;9.796;2023-04-24T13:39:30;0.30;;;0.30;;
75818;SDS011;64453;51.944;9.796;2023-04-24T13:41:57;0.27;;;0.20;;
75818;SDS011;64453;51.944;9.796;2023-04-24T13:44:24;0.40;;;0.30;;
75818;SDS011;64453;51.944;9.796;2023-04-24T13:46:53;0.30;;;0.30;;
75818;SDS011;64453;51.944;9.796;2023-04-24T13:49:23;1.20;;;0.63;;
75818;SDS011;64453;51.944;9.796;2023-04-24T13:51:51;0.50;;;0.40;;
75818;SDS011;64453;51.944;9.796;2023-04-24T13:54:19;2.83;;;0.73;;
75818;SDS011;64453;51.944;9.796;2023-04-24T13:56:47;0.50;;;0.50;;
75818;SDS011;64453;51.944;9.796;2023-04-24T13:59:14;0.90;;;0.40;;
75818;SDS011;64453;51.944;9.796;2023-04-24T14:01:41;0.80;;;0.40;;
75818;SDS011;64453;51.944;9.796;2023-04-24T14:04:10;0.50;;;0.50;;
75818;SDS011;64453;51.944;9.796;2023-04-24T14:06:38;1.53;;;0.50;;
75818;SDS011;64453;51.944;9.796;2023-04-24T14:09:05;0.50;;;0.50;;
75818;SDS011;64453;51.944;9.796;2023-04-24T14:11:33;1.20;;;1.00;;
75818;SDS011;64453;51.944;9.796;2023-04-24T14:14:00;0.77;;;0.77;;
75818;SDS011;64453;51.944;9.796;2023-04-24T14:16:28;0.50;;;0.50;;
75818;SDS011;64453;51.944;9.796;2023-04-24T14:18:55;0.53;;;0.53;;
75818;SDS011;64453;51.944;9.796;2023-04-24T14:21:22;0.97;;;0.93;;
75818;SDS011;64453;51.944;9.796;2023-04-24T14:23:50;0.80;;;0.80;;
75818;SDS011;64453;51.944;9.796;2023-04-24T14:26:17;1.00;;;1.00;;
75818;SDS011;64453;51.944;9.796;2023-04-24T14:28:44;0.93;;;0.93;;
75818;SDS011;64453;51.944;9.796;2023-04-24T14:31:11;1.07;;;1.07;;
75818;SDS011;64453;51.944;9.796;2023-04-24T14:33:38;0.67;;;0.67;;
75818;SDS011;64453;51.944;9.796;2023-04-24T14:36:05;0.87;;;0.87;;
75818;SDS011;64453;51.944;9.796;2023-04-24T14:38:32;1.03;;;0.93;;
75818;SDS011;64453;51.944;9.796;2023-04-24T14:41:02;0.80;;;0.80;;
75818;SDS011;64453;51.944;9.796;2023-04-24T14:43:34;1.10;;;1.10;;
75818;SDS011;64453;51.944;9.796;2023-04-24T14:46:01;1.20;;;1.10;;
75818;SDS011;64453;51.944;9.796;2023-04-24T14:48:28;1.97;;;1.87;;
75818;SDS011;64453;51.944;9.796;2023-04-24T14:50:55;1.27;;;1.23;;
75818;SDS011;64453;51.944;9.796;2023-04-24T14:53:22;0.87;;;0.87;;
75818;SDS011;64453;51.944;9.796;2023-04-24T14:55:49;1.30;;;1.10;;